• Join FlightAware (Why Join?)
  • Login
  • US Flag 
11:00AM EST


 

Airport Tracker/Info


-or-


 

Live Flight TrackerFlight Track Log ✈ N102WY ✈ 27-Feb-2014 ✈ KGEY - KCYS

Flight Track Log - Related Links

Times and Time Zones

All times are in EST time to prevent confusion due to time zone crossing. See the N102WY flight status page for this flight to view local times or setup timezone preferences in your user account.

Time Position Orientation Groundspeed Altitude Reporting Facility
EST Latitude Longitude Course Direction KTS MPH feet Rate Location/Type
05:48PM 44.5050 -108.1300 144° Southeast 228 262 12,300  Level Salt Lake Center
05:49PM 44.4331 -108.0531 143° Southeast 257 296 16,100 3,300 Climbing Salt Lake Center
05:50PM 44.3614 -107.9772 143° Southeast 291 335 19,200 2,760 Climbing Salt Lake Center
05:51PM 44.2817 -107.8936 143° Southeast 329 379 21,900 2,640 Climbing Salt Lake Center
05:52PM 44.2000 -107.8089 143° Southeast 359 413 24,700 2,460 Climbing Salt Lake Center
05:53PM 44.1175 -107.7203 142° Southeast 371 427 27,100 2,400 Climbing Salt Lake Center
05:54PM 44.0748 -107.6248 144° Southeast  Level FlightAware Approximate
05:55PM 44.0147 -107.6164 144° Southeast 380 437 29,700  Level Salt Lake Center
05:56PM 43.9292 -107.5250 142° Southeast 387 445 31,900 2,040 Climbing Salt Lake Center
05:57PM 43.8417 -107.4361 144° Southeast 391 450 34,000 1,920 Climbing Salt Lake Center
05:58PM 43.7553 -107.3469 143° Southeast 389 448 35,900 1,440 Climbing Salt Lake Center
05:59PM 43.6681 -107.2578 144° Southeast 390 449 37,000 480 Climbing Salt Lake Center
06:00PM 43.5797 -107.1650 143° Southeast 399 459 37,000  Level Salt Lake Center
06:01PM 43.4733 -107.0564 143° Southeast 397 457 37,000  Level Salt Lake Center
06:02PM 43.3861 -106.9700 144° Southeast 391 450 37,000  Level Salt Lake Center
06:03PM 43.3039 -106.8869 144° Southeast 389 448 37,000  Level Salt Lake Center
06:04PM 43.2075 -106.7883 143° Southeast 386 444 37,000  Level Salt Lake Center
06:05PM 43.1247 -106.7058 144° Southeast 387 445 37,000  Level Salt Lake Center
06:06PM 43.0286 -106.6094 144° Southeast 387 445 37,000  Level Salt Lake Center
06:07PM 42.9458 -106.5272 144° Southeast 383 441 37,000  Level Salt Lake Center
06:08PM 42.8481 -106.4300 144° Southeast 389 448 37,000  Level Salt Lake Center
06:09PM 42.7656 -106.3489 144° Southeast 386 444 37,000  Level Salt Lake Center
06:10PM 42.6675 -106.2533 144° Southeast 387 445 37,000  Level Salt Lake Center
06:11PM 42.5839 -106.1719 144° Southeast 388 447 37,000  Level Salt Lake Center
06:12PM 42.4883 -106.0769 144° Southeast 385 443 37,000  Level Salt Lake Center
06:13PM 42.4053 -105.9975 145° Southeast 383 441 37,000 -120 Level Salt Lake Center
06:14PM 42.3214 -105.9161 144° Southeast 385 443 36,800 -960 Descending Salt Lake Center
06:15PM 42.2253 -105.8233 144° Southeast 382 440 35,100 -1,980 Descending Salt Lake Center
06:16PM 42.1317 -105.7300 144° Southeast 381 438 32,700 -2,100 Descending Denver Center
06:17PM 42.0486 -105.6519 145° Southeast 381 438 30,700 -2,100 Descending Denver Center
06:18PM 41.9547 -105.5619 145° Southeast 378 435 28,400 -2,160 Descending Denver Center
06:19PM 41.8744 -105.4847 144° Southeast 376 433 26,300 -2,520 Descending Denver Center
06:20PM 41.7775 -105.3947 145° Southeast 379 436 23,300 -2,400 Descending Denver Center
06:21PM 41.6928 -105.3136 144° Southeast 387 445 21,400 -1,980 Descending Denver Center
06:22PM 41.5947 -105.2219 145° Southeast 388 447 19,200 -2,340 Descending Denver Center
06:24PM 41.5139 -105.1461 145° Southeast 378 435 16,600 -2,520 Descending Denver Center
06:25PM 41.4231 -105.0597 144° Southeast 367 422 14,100 -2,160 Descending Denver Center
06:26PM 41.3494 -104.9928 146° Southeast 346 398 12,200 -1,980 Descending Denver Center
06:27PM 41.2694 -104.9158 144° Southeast 325 374 10,100 -2,040 Descending Denver Center
06:29PM 41.1556 -104.8105 143° Southeast  Level Estimated
06:36PM 41.1556 -104.8105 143° Southeast  Level Estimated
06:37PM 41.1556 -104.8105 143° Southeast  Level Estimated
06:38PM 41.1556 -104.8105 143° Southeast  Level Estimated
06:39PM 41.1556 -104.8105 143° Southeast  Level Estimated